Time;durP1;ratioP1;P1;durP2;ratioP2;P2;SDS_P1;SDS_P2;PMS_P1;PMS_P2;Temp;Humidity;BMP_temperature;BMP_pressure;BME280_temperature;BME280_humidity;BME280_pressure;Samples;Min_cycle;Max_cycle;Signal;HPM_P1;HPM_P2
2021/07/13 00:00:16;;;;;;;13.90;10.02;;;;;;;14.83;90.77;99429.31;4934503;28;20314;-65
2021/07/13 00:02:41;;;;;;;17.05;11.40;;;;;;;14.73;91.00;99430.97;4967769;28;20130;-65
2021/07/13 00:05:11;;;;;;;14.52;10.43;;;;;;;14.73;91.10;99439.13;4949473;28;20027;-65
2021/07/13 00:07:37;;;;;;;16.27;11.95;;;;;;;14.73;91.07;99433.69;4946567;28;20126;-65
2021/07/13 00:10:06;;;;;;;18.60;13.25;;;;;;;14.74;91.08;99434.47;4965597;28;20031;-66
2021/07/13 00:12:34;;;;;;;14.65;11.77;;;;;;;14.73;91.14;99436.41;4916554;29;20078;-65
2021/07/13 00:14:59;;;;;;;25.48;15.52;;;;;;;14.68;91.59;99438.28;4956633;28;20070;-66
2021/07/13 00:17:25;;;;;;;18.55;13.57;;;;;;;14.68;90.94;99432.84;4947507;28;20082;-65
2021/07/13 00:19:50;;;;;;;15.27;13.25;;;;;;;14.72;91.14;99439.38;4952126;28;20058;-66
2021/07/13 00:22:16;;;;;;;18.75;14.93;;;;;;;14.70;91.24;99439.66;4964018;28;20035;-66
2021/07/13 00:24:42;;;;;;;21.67;14.68;;;;;;;14.71;91.07;99435.88;4949584;28;20035;-66
2021/07/13 00:27:08;;;;;;;22.40;14.48;;;;;;;14.76;91.08;99443.16;4949843;28;20126;-66
2021/07/13 00:29:33;;;;;;;19.20;14.23;;;;;;;14.72;91.35;99439.38;4952298;28;20082;-65
2021/07/13 00:31:59;;;;;;;20.77;15.32;;;;;;;14.69;91.63;99445.31;4955453;28;20035;-67
2021/07/13 00:34:25;;;;;;;18.48;14.68;;;;;;;14.69;91.83;99443.44;4934285;29;20035;-65
2021/07/13 00:36:51;;;;;;;23.08;15.82;;;;;;;14.67;91.47;99442.06;4952092;28;20833;-66
2021/07/13 00:39:16;;;;;;;20.70;15.98;;;;;;;14.68;91.96;99443.69;4947585;28;20114;-67
2021/07/13 00:41:43;;;;;;;21.98;16.67;;;;;;;14.57;92.05;99451.88;4952928;28;20559;-67
2021/07/13 00:44:08;;;;;;;29.15;17.33;;;;;;;14.63;92.42;99452.69;4964423;28;20066;-67
2021/07/13 00:46:44;;;;;;;25.98;17.33;;;;;;;14.64;92.05;99451.59;4965990;28;20393;-66
2021/07/13 00:49:11;;;;;;;24.02;16.85;;;;;;;14.63;92.43;99453.47;4966035;28;20122;-67
2021/07/13 00:51:37;;;;;;;23.63;17.30;;;;;;;14.73;92.25;99451.84;4931071;28;20381;-67
2021/07/13 00:54:02;;;;;;;24.65;19.00;;;;;;;14.60;92.23;99456.72;4975263;28;20046;-67
2021/07/13 00:56:28;;;;;;;27.90;19.98;;;;;;;14.54;92.10;99452.41;4946516;28;20481;-66
2021/07/13 00:58:54;;;;;;;26.85;19.55;;;;;;;14.54;92.46;99462.47;4941532;28;20532;-67
2021/07/13 01:01:19;;;;;;;35.88;19.90;;;;;;;14.58;92.44;99458.13;4948847;28;20468;-66
2021/07/13 01:03:45;;;;;;;24.55;18.60;;;;;;;14.59;92.56;99467.88;4957995;28;20610;-66
2021/07/13 01:06:13;;;;;;;31.92;20.50;;;;;;;14.59;92.83;99462.44;4950693;28;20122;-66
2021/07/13 01:08:45;;;;;;;27.58;19.17;;;;;;;14.57;92.42;99462.72;4934655;28;20508;-66
2021/07/13 01:11:29;;;;;;;29.60;20.00;;;;;;;14.59;92.83;99467.88;4951821;28;20102;-65
2021/07/13 01:14:29;;;;;;;30.80;21.23;;;;;;;14.67;92.01;99478.13;4955111;28;20130;-66
2021/07/13 01:17:01;;;;;;;29.80;20.58;;;;;;;14.57;92.53;99470.84;4929483;29;20043;-65
2021/07/13 01:19:38;;;;;;;30.00;19.98;;;;;;;14.54;93.00;99473.31;4956109;28;20043;-67
2021/07/13 01:22:09;;;;;;;34.42;20.77;;;;;;;14.55;93.40;99480.34;4953738;28;20031;-65
2021/07/13 01:24:50;;;;;;;30.08;19.75;;;;;;;14.56;93.44;99473.84;4948852;28;20042;-65
2021/07/13 01:27:37;;;;;;;26.55;18.40;;;;;;;14.56;92.78;99485.47;4959005;28;20046;-65
2021/07/13 01:30:13;;;;;;;25.30;17.17;;;;;;;14.55;92.90;99483.84;4953641;28;20031;-65
2021/07/13 01:32:42;;;;;;;22.48;16.10;;;;;;;14.56;92.88;99490.91;4936125;29;20048;-65
2021/07/13 01:35:12;;;;;;;19.70;14.90;;;;;;;14.50;92.89;99492.00;4955389;28;20043;-65
2021/07/13 01:37:44;;;;;;;23.58;14.45;;;;;;;14.59;92.61;99487.63;4953865;28;20039;-66
2021/07/13 01:40:10;;;;;;;18.48;14.15;;;;;;;14.58;92.47;99494.13;4963597;28;20519;-66
2021/07/13 01:42:39;;;;;;;15.82;11.98;;;;;;;14.57;91.94;99497.16;4953530;28;20198;-65
2021/07/13 01:45:06;;;;;;;12.63;9.77;;;;;;;14.55;91.32;99491.19;4952286;28;20035;-65
2021/07/13 01:47:35;;;;;;;12.02;8.80;;;;;;;14.56;90.69;99496.31;4965270;28;20046;-65
2021/07/13 01:50:01;;;;;;;11.52;8.65;;;;;;;14.46;91.60;99494.47;4948978;28;20042;-65
2021/07/13 01:52:28;;;;;;;13.25;9.75;;;;;;;14.49;91.30;99493.09;4953503;28;20027;-65
2021/07/13 01:54:55;;;;;;;12.50;9.38;;;;;;;14.49;91.40;99495.78;4960329;28;20043;-65
2021/07/13 01:57:21;;;;;;;12.38;9.07;;;;;;;14.46;91.00;99497.16;4948798;28;20046;-65
2021/07/13 01:59:48;;;;;;;11.43;8.88;;;;;;;14.45;91.41;99500.13;4948902;28;20035;-66
2021/07/13 02:02:15;;;;;;;11.63;8.98;;;;;;;14.51;91.45;99503.66;4942119;29;20039;-66
2021/07/13 02:04:42;;;;;;;16.48;9.70;;;;;;;14.57;90.75;99497.94;4949180;28;20039;-67
2021/07/13 02:07:11;;;;;;;13.25;10.13;;;;;;;14.54;91.24;99492.28;4954929;28;20035;-66
2021/07/13 02:09:38;;;;;;;12.73;10.27;;;;;;;14.53;90.74;99499.56;4959676;28;20027;-67
2021/07/13 02:12:04;;;;;;;12.38;9.57;;;;;;;14.48;91.34;99488.75;4950571;28;20130;-65
2021/07/13 02:14:30;;;;;;;12.90;9.93;;;;;;;14.51;90.84;99490.91;4963210;28;20126;-65
2021/07/13 02:16:56;;;;;;;11.02;9.82;;;;;;;14.48;90.55;99497.72;4949796;28;20122;-67
2021/07/13 02:19:21;;;;;;;11.88;9.57;;;;;;;14.49;90.91;99498.50;4953501;28;20029;-67
2021/07/13 02:21:48;;;;;;;11.60;9.30;;;;;;;14.46;90.73;99494.47;4952773;28;20058;-67
2021/07/13 02:24:15;;;;;;;12.27;9.63;;;;;;;14.47;90.83;99493.38;4958318;28;20034;-66
2021/07/13 02:26:51;;;;;;;12.23;8.80;;;;;;;14.41;91.15;99497.19;4951585;28;20054;-66
2021/07/13 02:29:20;;;;;;;9.63;8.63;;;;;;;14.49;90.91;99491.19;4949006;28;20027;-67
2021/07/13 02:31:53;;;;;;;9.65;8.65;;;;;;;14.45;90.51;99494.72;4951401;28;20385;-66
2021/07/13 02:34:25;;;;;;;9.63;8.68;;;;;;;14.44;90.88;99488.50;4956624;28;20096;-66
2021/07/13 02:36:52;;;;;;;10.85;9.07;;;;;;;14.40;91.49;99497.44;4961075;28;20042;-66
2021/07/13 02:39:20;;;;;;;11.32;9.65;;;;;;;14.51;90.85;99482.78;4943232;28;20040;-66
2021/07/13 02:41:49;;;;;;;10.85;8.80;;;;;;;14.49;91.29;99491.19;4948070;28;20035;-66
2021/07/13 02:44:16;;;;;;;10.20;9.07;;;;;;;14.54;90.65;99484.13;4956038;28;20031;-67
2021/07/13 02:46:44;;;;;;;10.18;9.13;;;;;;;14.61;90.38;99476.53;4945933;28;20117;-66
2021/07/13 02:49:13;;;;;;;10.15;7.82;;;;;;;14.56;90.86;99480.06;4953219;28;20027;-67
2021/07/13 02:51:40;;;;;;;10.43;8.50;;;;;;;14.59;91.03;99478.72;4931423;28;20031;-66
2021/07/13 02:54:08;;;;;;;10.98;9.38;;;;;;;14.58;91.01;99477.88;4964075;28;20393;-66
2021/07/13 02:56:36;;;;;;;16.33;9.82;;;;;;;14.65;91.20;99480.31;4958174;28;20082;-66
2021/07/13 02:59:03;;;;;;;11.70;9.05;;;;;;;14.64;90.91;99481.41;4950034;28;20039;-67
2021/07/13 03:01:30;;;;;;;14.00;9.48;;;;;;;14.55;91.47;99480.34;4942559;28;20160;-66
2021/07/13 03:03:57;;;;;;;15.63;11.55;;;;;;;14.59;91.45;99478.72;4958169;28;20046;-66
2021/07/13 03:06:23;;;;;;;15.88;11.10;;;;;;;14.53;91.78;99482.53;4938008;28;20185;-67
2021/07/13 03:08:49;;;;;;;18.00;12.63;;;;;;;14.53;92.17;99477.91;4946263;28;20512;-67
2021/07/13 03:11:14;;;;;;;19.40;13.13;;;;;;;14.48;92.38;99477.91;4956170;28;20047;-65
2021/07/13 03:13:41;;;;;;;23.33;13.85;;;;;;;14.48;92.78;99477.91;4952323;28;20054;-67
2021/07/13 03:16:10;;;;;;;19.05;13.68;;;;;;;14.47;92.86;99481.72;4955574;28;20492;-66
2021/07/13 03:18:36;;;;;;;23.02;13.90;;;;;;;14.48;93.10;99475.19;4948400;28;20039;-66
2021/07/13 03:21:04;;;;;;;20.05;13.80;;;;;;;14.48;92.89;99472.50;4951759;28;20046;-66
2021/07/13 03:23:33;;;;;;;18.65;13.05;;;;;;;14.49;92.90;99480.34;4944753;28;20428;-66
2021/07/13 03:25:59;;;;;;;19.50;12.63;;;;;;;14.58;92.59;99469.75;4952371;28;20106;-66
2021/07/13 03:28:27;;;;;;;15.63;11.60;;;;;;;14.59;92.26;99486.84;4954339;28;20058;-66
2021/07/13 03:30:54;;;;;;;17.33;11.43;;;;;;;14.62;92.21;99491.72;4944367;28;20101;-67
2021/07/13 03:33:21;;;;;;;15.70;10.75;;;;;;;14.61;92.22;99493.59;4951127;28;20167;-66
2021/07/13 03:35:48;;;;;;;15.73;10.75;;;;;;;14.64;92.09;99490.31;4945520;28;20171;-66
2021/07/13 03:38:18;;;;;;;15.88;10.82;;;;;;;14.61;92.36;99484.66;4951443;28;20051;-67
2021/07/13 03:40:46;;;;;;;16.27;10.05;;;;;;;14.59;92.68;99487.63;4945777;28;20576;-67
2021/07/13 03:43:12;;;;;;;12.55;9.57;;;;;;;14.58;92.88;99493.34;4947921;28;20034;-67
2021/07/13 03:45:38;;;;;;;13.77;8.93;;;;;;;14.54;93.32;99490.34;4952056;28;20039;-67
2021/07/13 03:48:04;;;;;;;10.15;8.27;;;;;;;14.55;92.93;99485.75;4951191;28;20067;-67
2021/07/13 03:50:35;;;;;;;14.13;8.45;;;;;;;14.61;93.45;99490.09;4948776;28;20086;-67
2021/07/13 03:53:02;;;;;;;12.20;7.90;;;;;;;14.64;92.93;99492.25;4949145;28;20105;-67
2021/07/13 03:55:28;;;;;;;11.68;7.72;;;;;;;14.65;92.73;99483.03;4952483;28;20034;-67
2021/07/13 03:57:54;;;;;;;9.38;6.57;;;;;;;14.61;93.09;99493.59;4948075;28;20047;-67
2021/07/13 04:00:22;;;;;;;12.88;6.13;;;;;;;14.69;92.78;99486.81;4955633;28;20042;-66
2021/07/13 04:02:47;;;;;;;9.90;6.22;;;;;;;14.65;92.69;99485.72;4962076;28;20042;-66
2021/07/13 04:05:13;;;;;;;7.85;6.07;;;;;;;14.67;92.69;99488.16;4948903;28;20031;-67
2021/07/13 04:07:40;;;;;;;14.63;7.32;;;;;;;14.58;93.55;99490.63;4959684;28;20401;-67
2021/07/13 04:10:07;;;;;;;7.68;6.55;;;;;;;14.58;93.77;99483.31;4951001;28;20031;-66
2021/07/13 04:12:34;;;;;;;15.98;7.63;;;;;;;14.56;94.83;99495.53;4950502;28;20071;-66
2021/07/13 04:14:59;;;;;;;11.48;8.77;;;;;;;14.51;94.58;99490.13;4962472;28;20067;-66
2021/07/13 04:17:25;;;;;;;14.95;9.63;;;;;;;14.48;95.19;99492.28;4945188;28;20038;-66
2021/07/13 04:19:51;;;;;;;11.80;9.73;;;;;;;14.43;95.52;99505.03;4941140;28;20039;-67
2021/07/13 04:22:17;;;;;;;15.13;10.25;;;;;;;14.43;96.46;99502.31;4949552;28;20035;-67
2021/07/13 04:24:43;;;;;;;14.73;11.15;;;;;;;14.39;96.74;99510.19;4958218;28;20109;-67
2021/07/13 04:27:09;;;;;;;16.95;10.90;;;;;;;14.38;96.80;99496.91;4942730;28;20035;-66
2021/07/13 04:29:34;;;;;;;17.13;11.07;;;;;;;14.38;96.61;99507.75;4951945;28;20043;-67
2021/07/13 04:32:00;;;;;;;13.05;11.27;;;;;;;14.38;97.33;99507.75;4944258;28;20027;-67
2021/07/13 04:34:26;;;;;;;15.68;11.50;;;;;;;14.34;97.81;99510.19;4938524;28;20035;-66
2021/07/13 04:36:53;;;;;;;10.75;8.82;;;;;;;14.35;97.82;99509.91;4959820;28;20034;-65
2021/07/13 04:39:18;;;;;;;14.95;10.82;;;;;;;14.34;98.07;99515.63;4944900;28;20031;-66
2021/07/13 04:41:45;;;;;;;6.00;5.25;;;;;;;14.29;97.36;99519.13;4943562;28;20054;-66
2021/07/13 04:44:10;;;;;;;6.32;5.50;;;;;;;14.28;97.17;99514.00;4950666;28;20231;-66
2021/07/13 04:46:36;;;;;;;7.07;4.43;;;;;;;14.20;97.27;99526.19;4960459;28;20687;-67
2021/07/13 04:49:01;;;;;;;6.20;4.20;;;;;;;14.17;97.73;99530.25;4959418;28;20035;-67
2021/07/13 04:51:27;;;;;;;4.95;4.40;;;;;;;14.12;98.09;99526.72;4956655;28;20027;-67
2021/07/13 04:53:53;;;;;;;8.43;4.30;;;;;;;14.06;98.01;99531.31;4959810;28;20039;-67
2021/07/13 04:56:18;;;;;;;4.70;4.18;;;;;;;14.08;98.49;99531.84;4955602;28;20062;-67
2021/07/13 04:58:44;;;;;;;6.57;4.72;;;;;;;14.06;98.06;99528.59;4956322;28;20532;-67
2021/07/13 05:01:10;;;;;;;6.45;4.05;;;;;;;14.13;98.20;99536.47;4963476;28;20035;-67
2021/07/13 05:03:36;;;;;;;7.63;4.88;;;;;;;14.16;98.12;99541.34;4963431;28;20086;-67
2021/07/13 05:06:02;;;;;;;8.05;4.65;;;;;;;14.12;97.98;99537.56;4964034;28;20101;-68
2021/07/13 05:08:27;;;;;;;5.78;3.72;;;;;;;14.05;97.46;99535.94;4943891;28;20492;-67
2021/07/13 05:10:53;;;;;;;8.02;3.78;;;;;;;14.09;97.47;99548.94;4938355;29;20065;-67
2021/07/13 05:13:19;;;;;;;5.40;4.00;;;;;;;14.07;97.83;99538.34;4952877;28;20046;-67
2021/07/13 05:15:45;;;;;;;9.32;4.13;;;;;;;14.11;97.59;99549.47;4960012;28;20098;-67
2021/07/13 05:18:12;;;;;;;5.25;4.00;;;;;;;14.11;97.38;99547.56;4941694;28;20501;-66
2021/07/13 05:20:43;;;;;;;5.88;3.65;;;;;;;14.06;97.43;99558.41;4957967;28;20074;-67
2021/07/13 05:23:09;;;;;;;8.45;3.90;;;;;;;14.07;96.88;99546.47;4948442;28;20437;-67
2021/07/13 05:25:37;;;;;;;7.20;3.53;;;;;;;14.07;96.79;99551.09;4955179;28;20031;-67
2021/07/13 05:28:04;;;;;;;6.65;4.00;;;;;;;14.03;97.10;99553.53;4939206;28;20031;-67
2021/07/13 05:30:31;;;;;;;9.45;4.07;;;;;;;14.04;97.27;99555.97;4958992;28;20027;-67
2021/07/13 05:32:57;;;;;;;6.97;4.05;;;;;;;14.10;96.98;99550.56;4952853;28;20027;-67
2021/07/13 05:35:23;;;;;;;9.25;4.03;;;;;;;14.11;96.98;99555.69;4934159;28;20551;-67
2021/07/13 05:37:49;;;;;;;5.93;3.97;;;;;;;14.10;97.10;99556.78;4942052;28;20035;-67
2021/07/13 05:40:15;;;;;;;5.00;3.83;;;;;;;14.09;97.19;99552.44;4946530;28;20389;-68
2021/07/13 05:42:41;;;;;;;7.22;4.40;;;;;;;14.10;97.49;99561.41;4953873;28;20072;-67
2021/07/13 05:45:08;;;;;;;8.02;3.30;;;;;;;14.07;97.22;99565.44;4952052;28;20054;-67
2021/07/13 05:47:34;;;;;;;10.40;2.83;;;;;;;14.06;96.70;99563.81;4943956;28;20042;-67
2021/07/13 05:50:00;;;;;;;5.00;3.00;;;;;;;13.99;97.25;99557.84;4865953;28;20082;-67
2021/07/13 05:52:25;;;;;;;4.07;3.45;;;;;;;14.03;97.32;99565.19;4935907;28;20087;-67
2021/07/13 05:54:52;;;;;;;5.03;3.45;;;;;;;14.01;97.07;99564.63;4938472;28;20032;-67
2021/07/13 05:57:17;;;;;;;5.80;3.33;;;;;;;13.99;97.33;99576.81;4941685;28;20480;-67
2021/07/13 05:59:43;;;;;;;6.38;3.65;;;;;;;14.01;97.59;99570.06;4952286;28;20073;-67
2021/07/13 06:02:09;;;;;;;4.05;2.97;;;;;;;13.99;96.93;99576.81;4948977;28;20043;-67
2021/07/13 06:04:35;;;;;;;7.00;3.30;;;;;;;13.92;97.33;99579.78;4954201;28;20153;-67
2021/07/13 06:07:00;;;;;;;5.35;3.75;;;;;;;13.89;97.58;99583.03;4949178;28;20686;-67
2021/07/13 06:09:27;;;;;;;6.40;3.40;;;;;;;13.96;97.71;99578.16;4944602;28;20126;-67
2021/07/13 06:11:56;;;;;;;3.88;3.33;;;;;;;13.89;97.98;99588.44;4958065;28;20035;-66
2021/07/13 06:14:22;;;;;;;4.38;2.90;;;;;;;13.88;97.76;99579.50;4956584;28;20074;-66
2021/07/13 06:16:48;;;;;;;3.85;3.45;;;;;;;13.89;97.85;99591.97;4941738;28;20039;-66
2021/07/13 06:19:14;;;;;;;8.20;4.30;;;;;;;13.89;98.35;99596.56;4943074;28;20144;-66
2021/07/13 06:21:40;;;;;;;5.38;3.95;;;;;;;13.89;98.09;99597.38;4954224;28;20042;-65
2021/07/13 06:24:06;;;;;;;6.13;4.93;;;;;;;13.92;98.39;99604.16;4949857;28;20028;-65
2021/07/13 06:26:33;;;;;;;9.30;4.70;;;;;;;13.93;97.90;99602.25;4950616;28;20039;-66
2021/07/13 06:29:02;;;;;;;7.32;5.03;;;;;;;14.03;97.68;99602.25;4722585;28;10001016;-65
2021/07/13 06:31:27;;;;;;;9.70;5.55;;;;;;;14.01;97.81;99597.13;4952894;28;20246;-66
2021/07/13 06:33:53;;;;;;;7.38;5.25;;;;;;;14.09;98.21;99601.19;4950299;28;20051;-66
2021/07/13 06:36:20;;;;;;;10.48;6.22;;;;;;;14.09;98.13;99611.22;4942113;28;20031;-65
2021/07/13 06:38:45;;;;;;;8.98;6.47;;;;;;;14.08;97.55;99610.41;4946588;28;20035;-66
2021/07/13 06:41:11;;;;;;;10.35;7.15;;;;;;;14.17;97.77;99607.97;4948353;28;20027;-67
2021/07/13 06:43:36;;;;;;;10.48;6.85;;;;;;;14.07;97.49;99618.81;4947403;28;20038;-67
2021/07/13 06:46:02;;;;;;;13.30;7.28;;;;;;;14.10;97.67;99620.97;4955243;28;20031;-67
2021/07/13 06:48:27;;;;;;;13.88;7.53;;;;;;;14.13;97.61;99615.00;4946755;28;20066;-67
2021/07/13 06:50:53;;;;;;;10.32;6.68;;;;;;;14.09;97.30;99628.25;4955612;28;20042;-67
2021/07/13 06:53:19;;;;;;;9.52;6.00;;;;;;;14.08;96.72;99629.34;4949702;28;20066;-67
2021/07/13 06:55:45;;;;;;;12.90;6.28;;;;;;;14.05;96.29;99641.53;4938292;28;20048;-66
2021/07/13 06:58:10;;;;;;;13.57;6.28;;;;;;;14.02;97.00;99636.66;4943311;28;20054;-66
2021/07/13 07:00:36;;;;;;;12.57;5.55;;;;;;;13.99;96.63;99639.91;4920642;28;20031;-67
2021/07/13 07:03:01;;;;;;;10.02;5.20;;;;;;;13.95;97.19;99643.41;4946473;28;20035;-66
2021/07/13 07:05:27;;;;;;;10.35;6.00;;;;;;;14.07;97.24;99643.19;4939674;28;20039;-67
2021/07/13 07:07:53;;;;;;;7.45;5.97;;;;;;;14.02;96.71;99641.25;4941300;28;20742;-67
2021/07/13 07:10:20;;;;;;;9.73;6.40;;;;;;;14.00;96.94;99655.06;4948666;28;20619;-67
2021/07/13 07:12:47;;;;;;;13.65;6.95;;;;;;;14.05;97.08;99652.38;4933917;28;20079;-66
2021/07/13 07:15:13;;;;;;;7.97;6.15;;;;;;;14.07;96.83;99659.41;4945178;28;20151;-68
2021/07/13 07:17:52;;;;;;;11.05;7.20;;;;;;;13.98;96.81;99664.53;4951729;28;20131;-67
2021/07/13 07:20:21;;;;;;;11.48;8.02;;;;;;;14.07;96.75;99665.63;4938777;28;20098;-67
2021/07/13 07:22:47;;;;;;;13.68;8.20;;;;;;;14.08;96.52;99671.88;4945373;28;20108;-67
2021/07/13 07:25:13;;;;;;;11.70;8.07;;;;;;;14.10;96.49;99667.81;4946370;28;20695;-67
2021/07/13 07:27:40;;;;;;;12.90;9.35;;;;;;;14.13;96.64;99663.75;4937857;28;20138;-67
2021/07/13 07:30:07;;;;;;;21.25;9.50;;;;;;;14.13;96.46;99664.56;4942741;28;20086;-67
2021/07/13 07:32:34;;;;;;;19.77;10.00;;;;;;;14.10;97.00;99667.81;4950583;28;20541;-68
2021/07/13 07:35:00;;;;;;;15.32;11.00;;;;;;;14.08;97.06;99661.03;4925937;29;20445;-67
2021/07/13 07:37:26;;;;;;;20.55;11.40;;;;;;;14.16;97.36;99665.94;4932647;29;20035;-68
2021/07/13 07:39:52;;;;;;;22.15;10.93;;;;;;;14.11;97.42;99655.91;4941372;28;20068;-69
2021/07/13 07:42:18;;;;;;;20.15;12.07;;;;;;;14.14;97.00;99666.22;4939278;28;20032;-68
2021/07/13 07:44:43;;;;;;;18.80;12.25;;;;;;;14.11;97.57;99668.63;4957149;28;20404;-69
2021/07/13 07:47:09;;;;;;;21.60;11.75;;;;;;;14.13;97.01;99669.19;4944341;28;20140;-69
2021/07/13 07:49:34;;;;;;;19.33;11.60;;;;;;;14.13;97.12;99674.59;4926625;28;20122;-69
2021/07/13 07:52:00;;;;;;;26.48;12.43;;;;;;;14.14;97.43;99677.06;4954687;28;20035;-68
2021/07/13 07:54:26;;;;;;;23.33;12.40;;;;;;;14.22;96.96;99677.59;4959773;28;20488;-68
2021/07/13 07:56:52;;;;;;;19.65;10.80;;;;;;;14.07;96.48;99684.59;4949744;28;20082;-68
2021/07/13 07:59:18;;;;;;;22.23;11.68;;;;;;;14.09;97.34;99678.91;4945584;28;20031;-68
2021/07/13 08:01:44;;;;;;;19.98;12.10;;;;;;;14.09;97.19;99685.13;4955174;28;20047;-68
2021/07/13 08:04:10;;;;;;;17.90;12.00;;;;;;;14.13;97.28;99680.00;4961923;28;20039;-68
2021/07/13 08:06:35;;;;;;;17.10;10.77;;;;;;;14.09;96.75;99687.03;4954060;28;20047;-71
2021/07/13 08:09:01;;;;;;;18.48;10.40;;;;;;;14.11;96.47;99680.28;4929992;28;20030;-69
2021/07/13 08:11:26;;;;;;;14.93;9.45;;;;;;;14.06;96.58;99688.38;4963230;28;20031;-70
2021/07/13 08:13:52;;;;;;;21.40;11.40;;;;;;;14.13;96.64;99686.22;4920117;29;20047;-69
2021/07/13 08:16:18;;;;;;;18.30;9.75;;;;;;;14.14;96.07;99697.88;4960536;28;20039;-69
2021/07/13 08:18:44;;;;;;;21.55;10.55;;;;;;;14.14;95.90;99696.00;4950668;28;20045;-69
2021/07/13 08:21:09;;;;;;;21.33;9.98;;;;;;;14.16;95.93;99691.13;4945991;28;20090;-69
2021/07/13 08:23:35;;;;;;;19.15;9.55;;;;;;;14.22;95.58;99700.06;4943402;28;20043;-69
2021/07/13 08:26:01;;;;;;;15.18;9.18;;;;;;;14.25;95.35;99698.75;4971003;28;20038;-69
2021/07/13 08:28:26;;;;;;;14.52;8.65;;;;;;;14.24;95.44;99708.75;4956725;28;20485;-69
2021/07/13 08:30:52;;;;;;;15.65;9.25;;;;;;;14.25;95.63;99699.53;4957455;28;20075;-69
2021/07/13 08:33:17;;;;;;;14.48;8.68;;;;;;;14.34;95.55;99700.63;4948950;28;20110;-70
2021/07/13 08:35:43;;;;;;;14.32;8.02;;;;;;;14.35;94.64;99702.25;4965518;28;20070;-69
2021/07/13 08:38:08;;;;;;;16.55;8.57;;;;;;;14.32;95.01;99697.38;4962275;28;20042;-69
2021/07/13 08:40:34;;;;;;;15.38;8.55;;;;;;;14.37;95.04;99702.00;4945007;28;20043;-69
2021/07/13 08:42:59;;;;;;;15.35;7.45;;;;;;;14.44;93.61;99704.44;4933111;28;20062;-69
2021/07/13 08:45:26;;;;;;;18.63;8.05;;;;;;;14.40;94.57;99696.06;4953991;28;20066;-70
2021/07/13 08:47:52;;;;;;;15.25;8.13;;;;;;;14.43;94.17;99695.50;4959584;28;20038;-68
2021/07/13 08:50:20;;;;;;;17.10;8.13;;;;;;;14.41;94.03;99696.84;4949873;28;20039;-67
2021/07/13 08:52:47;;;;;;;18.92;8.73;;;;;;;14.30;94.44;99698.75;4963436;28;20047;-68
2021/07/13 08:55:14;;;;;;;14.93;8.20;;;;;;;14.36;94.73;99708.50;4960667;28;20070;-68
2021/07/13 08:57:41;;;;;;;16.50;8.60;;;;;;;14.33;94.27;99712.56;4963660;28;20146;-68
2021/07/13 09:00:13;;;;;;;17.92;10.02;;;;;;;14.32;94.93;99710.94;4952275;28;20500;-68
2021/07/13 09:03:08;;;;;;;23.00;11.55;;;;;;;14.29;95.05;99708.75;4955135;28;20062;-68
2021/07/13 09:05:40;;;;;;;25.55;12.68;;;;;;;14.25;95.21;99701.44;4957937;28;20039;-68
2021/07/13 09:08:12;;;;;;;20.52;12.52;;;;;;;14.31;94.87;99698.47;4963598;28;20035;-67
2021/07/13 09:10:38;;;;;;;23.67;11.90;;;;;;;14.32;94.15;99699.28;4961617;28;20477;-68
2021/07/13 09:13:04;;;;;;;21.25;11.30;;;;;;;14.32;93.76;99702.81;4960145;28;20085;-69
2021/07/13 09:15:30;;;;;;;16.20;11.02;;;;;;;14.38;93.18;99691.97;4953888;28;20030;-68
2021/07/13 09:17:55;;;;;;;18.02;10.13;;;;;;;14.54;93.48;99692.81;4963595;28;20023;-68
2021/07/13 09:20:29;;;;;;;13.18;8.85;;;;;;;14.70;92.06;99693.66;4951767;28;20031;-69
2021/07/13 09:22:59;;;;;;;12.85;6.80;;;;;;;15.03;90.24;99694.19;4943532;28;20130;-69
2021/07/13 09:25:27;;;;;;;8.85;6.20;;;;;;;15.18;90.53;99693.34;4951491;28;20092;-69
2021/07/13 09:28:21;;;;;;;9.80;4.90;;;;;;;15.23;87.92;99698.75;4948997;28;20039;-69
2021/07/13 09:30:48;;;;;;;8.52;5.50;;;;;;;15.37;88.57;99693.56;4956935;28;20484;-69
2021/07/13 09:33:25;;;;;;;7.97;4.93;;;;;;;15.45;88.71;99690.28;4950107;28;20036;-69
2021/07/13 09:36:11;;;;;;;12.90;5.03;;;;;;;15.48;87.88;99697.88;4957772;28;20473;-68
2021/07/13 09:38:52;;;;;;;7.95;4.65;;;;;;;15.54;87.13;99706.00;4946486;28;20495;-68
2021/07/13 09:41:21;;;;;;;8.65;4.40;;;;;;;15.56;87.17;99701.13;4936708;29;20388;-68
2021/07/13 09:44:10;;;;;;;7.32;3.58;;;;;;;15.47;87.56;99704.41;4951404;28;20039;-68
2021/07/13 09:46:44;;;;;;;11.13;2.97;;;;;;;15.60;86.58;99702.19;4948360;28;20023;-68
2021/07/13 09:49:16;;;;;;;7.53;3.55;;;;;;;15.61;88.06;99714.66;4948982;28;20035;-68
2021/07/13 09:51:55;;;;;;;6.95;3.22;;;;;;;15.71;85.76;99711.91;4946130;28;20490;-68
2021/07/13 09:54:31;;;;;;;5.68;2.70;;;;;;;15.68;85.91;99707.03;4954520;28;20032;-68
2021/07/13 09:56:57;;;;;;;3.70;2.60;;;;;;;15.64;86.20;99712.19;4938183;28;20453;-68
2021/07/13 09:59:23;;;;;;;4.82;2.70;;;;;;;15.69;86.69;99711.38;4935071;28;20028;-68
2021/07/13 10:01:50;;;;;;;4.20;2.78;;;;;;;15.66;86.32;99715.44;4947476;28;20023;-68
2021/07/13 10:04:15;;;;;;;14.63;2.97;;;;;;;15.68;85.41;99726.03;4961336;28;20027;-68
2021/07/13 10:06:41;;;;;;;4.75;2.67;;;;;;;15.79;85.99;99713.22;4949176;28;20434;-68
2021/07/13 10:09:11;;;;;;;7.57;2.50;;;;;;;15.89;84.02;99720.56;4945568;28;20036;-68
2021/07/13 10:11:39;;;;;;;4.88;2.38;;;;;;;15.85;84.13;99709.41;4949417;29;20027;-68
2021/07/13 10:14:07;;;;;;;4.85;2.42;;;;;;;15.66;85.00;99711.94;4945400;28;20070;-68
2021/07/13 10:16:32;;;;;;;6.72;2.58;;;;;;;15.62;84.39;99708.16;4950680;28;20065;-68
2021/07/13 10:18:59;;;;;;;5.97;2.40;;;;;;;15.68;85.52;99708.94;4951643;28;20055;-68
2021/07/13 10:21:26;;;;;;;7.25;2.92;;;;;;;15.86;86.03;99718.38;4952971;28;20484;-68
2021/07/13 10:23:53;;;;;;;5.35;3.20;;;;;;;15.88;85.42;99711.59;4949810;28;20027;-68
2021/07/13 10:26:49;;;;;;;8.27;3.40;;;;;;;15.74;84.75;99714.06;4953109;28;20106;-68
2021/07/13 10:29:33;;;;;;;8.48;3.30;;;;;;;15.90;85.74;99714.03;4954418;28;20081;-68
2021/07/13 10:32:03;;;;;;;5.90;3.35;;;;;;;16.07;85.21;99717.22;4944649;28;20059;-68
2021/07/13 10:34:50;;;;;;;7.65;3.60;;;;;;;15.91;85.54;99713.78;4958282;28;20039;-68
2021/07/13 10:37:33;;;;;;;6.60;3.60;;;;;;;16.01;84.51;99715.59;4956108;28;20078;-68
2021/07/13 10:40:04;;;;;;;8.45;3.30;;;;;;;16.10;85.86;99718.56;4948376;28;20043;-68
2021/07/13 10:42:42;;;;;;;4.45;2.50;;;;;;;16.14;84.32;99718.81;4957929;28;20090;-68
2021/07/13 10:45:32;;;;;;;2.80;2.50;;;;;;;16.07;83.53;99722.63;4966400;28;20045;-69
2021/07/13 10:48:08;;;;;;;3.58;2.63;;;;;;;16.09;84.55;99723.16;4962631;28;20457;-68
2021/07/13 10:50:36;;;;;;;5.97;2.47;;;;;;;16.22;82.32;99724.47;4964449;28;20049;-70
2021/07/13 10:53:06;;;;;;;6.18;2.33;;;;;;;16.34;81.97;99717.88;4957750;28;20042;-71
2021/07/13 10:55:31;;;;;;;10.38;2.67;;;;;;;16.47;82.24;99719.13;4960537;28;20465;-71
2021/07/13 10:58:13;;;;;;;4.35;2.42;;;;;;;16.63;81.21;99717.13;4936210;28;20066;-71
2021/07/13 11:00:50;;;;;;;4.72;2.35;;;;;;;16.74;80.22;99715.13;4957391;28;20042;-71
2021/07/13 11:06:01;;;;;;;7.03;2.38;;;;;;;17.22;79.64;99728.91;4960577;28;20102;-71
2021/07/13 11:08:49;;;;;;;5.38;2.40;;;;;;;17.38;78.51;99726.81;4964616;28;20054;-72
2021/07/13 11:11:15;;;;;;;7.75;2.55;;;;;;;17.27;77.47;99723.41;4946937;28;20043;-71
2021/07/13 11:14:04;;;;;;;5.60;2.35;;;;;;;17.34;79.30;99725.78;4947247;28;20058;-71
2021/07/13 11:16:31;;;;;;;7.30;2.38;;;;;;;17.08;78.05;99727.94;4943157;28;20031;-71
2021/07/13 11:18:58;;;;;;;3.05;2.08;;;;;;;17.22;77.79;99723.44;4952965;28;20032;-71
2021/07/13 11:21:35;;;;;;;5.05;2.55;;;;;;;17.11;78.18;99720.00;4943472;28;20477;-71
2021/07/13 11:24:03;;;;;;;5.53;2.50;;;;;;;17.14;78.02;99725.97;4951416;28;20110;-72
2021/07/13 11:26:30;;;;;;;5.20;2.80;;;;;;;17.31;78.29;99729.06;4956618;28;20465;-71
2021/07/13 11:29:00;;;;;;;6.50;2.40;;;;;;;17.39;78.03;99720.28;4955451;28;20035;-71
2021/07/13 11:31:32;;;;;;;10.90;2.35;;;;;;;17.34;75.41;99723.03;4953704;28;20495;-71